sensor_id;sensor_type;location;lat;lon;timestamp;P1;durP1;ratioP1;P2;durP2;ratioP2
45688;SDS011;31400;48.132;20.872;2023-12-28T10:18:30;9.87;;;5.17;;
45688;SDS011;31400;48.132;20.872;2023-12-28T10:20:57;10.30;;;7.00;;
45688;SDS011;31400;48.132;20.872;2023-12-28T10:25:50;10.30;;;6.40;;
45688;SDS011;31400;48.132;20.872;2023-12-28T10:28:18;10.20;;;6.47;;
45688;SDS011;31400;48.132;20.872;2023-12-28T10:30:45;8.95;;;6.05;;
45688;SDS011;31400;48.132;20.872;2023-12-28T10:33:11;9.35;;;6.15;;
45688;SDS011;31400;48.132;20.872;2023-12-28T10:35:38;14.38;;;7.00;;
45688;SDS011;31400;48.132;20.872;2023-12-28T10:40:30;17.25;;;6.60;;
45688;SDS011;31400;48.132;20.872;2023-12-28T10:42:58;13.38;;;7.35;;
45688;SDS011;31400;48.132;20.872;2023-12-28T10:45:28;11.32;;;6.60;;
45688;SDS011;31400;48.132;20.872;2023-12-28T10:48:05;6.57;;;4.65;;
45688;SDS011;31400;48.132;20.872;2023-12-28T10:55:53;10.38;;;6.20;;
45688;SDS011;31400;48.132;20.872;2023-12-28T10:58:21;8.15;;;5.45;;
45688;SDS011;31400;48.132;20.872;2023-12-28T11:00:56;16.15;;;6.45;;
45688;SDS011;31400;48.132;20.872;2023-12-28T11:03:27;11.77;;;6.15;;
45688;SDS011;31400;48.132;20.872;2023-12-28T11:05:53;8.98;;;6.70;;
45688;SDS011;31400;48.132;20.872;2023-12-28T11:08:21;10.25;;;6.30;;
45688;SDS011;31400;48.132;20.872;2023-12-28T11:13:13;13.32;;;6.70;;
45688;SDS011;31400;48.132;20.872;2023-12-28T11:15:40;8.85;;;5.95;;
45688;SDS011;31400;48.132;20.872;2023-12-28T11:18:06;10.55;;;6.20;;
45688;SDS011;31400;48.132;20.872;2023-12-28T11:22:58;7.88;;;6.32;;
45688;SDS011;31400;48.132;20.872;2023-12-28T11:25:25;10.07;;;7.40;;
45688;SDS011;31400;48.132;20.872;2023-12-28T11:27:56;9.77;;;6.85;;
45688;SDS011;31400;48.132;20.872;2023-12-28T11:32:48;8.75;;;6.78;;
45688;SDS011;31400;48.132;20.872;2023-12-28T11:35:14;14.02;;;6.68;;
45688;SDS011;31400;48.132;20.872;2023-12-28T11:37:46;10.02;;;7.00;;
45688;SDS011;31400;48.132;20.872;2023-12-28T11:40:13;11.57;;;6.03;;
45688;SDS011;31400;48.132;20.872;2023-12-28T11:42:47;23.10;;;7.70;;
45688;SDS011;31400;48.132;20.872;2023-12-28T11:45:13;9.15;;;6.80;;
45688;SDS011;31400;48.132;20.872;2023-12-28T11:47:41;12.18;;;7.10;;
45688;SDS011;31400;48.132;20.872;2023-12-28T11:52:33;11.68;;;6.40;;
45688;SDS011;31400;48.132;20.872;2023-12-28T11:57:26;11.00;;;6.78;;
45688;SDS011;31400;48.132;20.872;2023-12-28T11:59:55;12.40;;;7.05;;
45688;SDS011;31400;48.132;20.872;2023-12-28T12:02:22;14.15;;;7.00;;
45688;SDS011;31400;48.132;20.872;2023-12-28T12:04:49;12.57;;;6.40;;
45688;SDS011;31400;48.132;20.872;2023-12-28T12:09:43;10.07;;;6.55;;
45688;SDS011;31400;48.132;20.872;2023-12-28T12:12:10;11.48;;;6.20;;
45688;SDS011;31400;48.132;20.872;2023-12-28T12:14:36;10.77;;;6.63;;
45688;SDS011;31400;48.132;20.872;2023-12-28T12:19:28;10.65;;;6.05;;
45688;SDS011;31400;48.132;20.872;2023-12-28T12:21:55;13.32;;;6.35;;
45688;SDS011;31400;48.132;20.872;2023-12-28T12:24:21;10.65;;;6.28;;
45688;SDS011;31400;48.132;20.872;2023-12-28T12:26:49;13.32;;;7.18;;
45688;SDS011;31400;48.132;20.872;2023-12-28T12:29:15;15.77;;;6.65;;
45688;SDS011;31400;48.132;20.872;2023-12-28T12:31:41;17.58;;;6.85;;
45688;SDS011;31400;48.132;20.872;2023-12-28T12:34:10;14.02;;;8.07;;
45688;SDS011;31400;48.132;20.872;2023-12-28T12:36:37;11.10;;;7.15;;
45688;SDS011;31400;48.132;20.872;2023-12-28T12:39:03;13.65;;;7.10;;
45688;SDS011;31400;48.132;20.872;2023-12-28T12:41:33;11.13;;;7.57;;
45688;SDS011;31400;48.132;20.872;2023-12-28T12:43:59;14.90;;;7.95;;
45688;SDS011;31400;48.132;20.872;2023-12-28T12:48:56;12.65;;;6.60;;
45688;SDS011;31400;48.132;20.872;2023-12-28T12:51:22;12.88;;;6.10;;
45688;SDS011;31400;48.132;20.872;2023-12-28T12:56:14;9.25;;;6.55;;
45688;SDS011;31400;48.132;20.872;2023-12-28T12:58:42;12.15;;;6.35;;
45688;SDS011;31400;48.132;20.872;2023-12-28T13:03:35;12.63;;;7.45;;
45688;SDS011;31400;48.132;20.872;2023-12-28T13:06:01;12.27;;;6.68;;
45688;SDS011;31400;48.132;20.872;2023-12-28T13:08:29;10.57;;;7.63;;
45688;SDS011;31400;48.132;20.872;2023-12-28T13:10:54;12.00;;;8.02;;
45688;SDS011;31400;48.132;20.872;2023-12-28T13:13:20;12.98;;;7.38;;
45688;SDS011;31400;48.132;20.872;2023-12-28T13:15:47;10.18;;;6.90;;
45688;SDS011;31400;48.132;20.872;2023-12-28T13:20:39;10.10;;;5.85;;
45688;SDS011;31400;48.132;20.872;2023-12-28T13:23:05;10.35;;;6.63;;
45688;SDS011;31400;48.132;20.872;2023-12-28T13:25:31;11.20;;;6.45;;
45688;SDS011;31400;48.132;20.872;2023-12-28T13:27:59;13.75;;;6.35;;
45688;SDS011;31400;48.132;20.872;2023-12-28T13:30:25;11.45;;;6.97;;
45688;SDS011;31400;48.132;20.872;2023-12-28T13:32:53;19.23;;;6.95;;
45688;SDS011;31400;48.132;20.872;2023-12-28T13:35:21;17.42;;;6.57;;
45688;SDS011;31400;48.132;20.872;2023-12-28T13:37:47;13.13;;;7.63;;
45688;SDS011;31400;48.132;20.872;2023-12-28T13:40:13;13.85;;;7.88;;
45688;SDS011;31400;48.132;20.872;2023-12-28T13:42:40;12.85;;;7.97;;
45688;SDS011;31400;48.132;20.872;2023-12-28T13:45:06;15.27;;;7.53;;
45688;SDS011;31400;48.132;20.872;2023-12-28T13:47:32;11.70;;;7.78;;
45688;SDS011;31400;48.132;20.872;2023-12-28T13:49:58;15.75;;;8.90;;
45688;SDS011;31400;48.132;20.872;2023-12-28T13:52:24;15.77;;;7.65;;
45688;SDS011;31400;48.132;20.872;2023-12-28T13:54:50;18.38;;;8.40;;
45688;SDS011;31400;48.132;20.872;2023-12-28T13:57:16;12.30;;;8.48;;
45688;SDS011;31400;48.132;20.872;2023-12-28T13:59:42;14.93;;;8.93;;
45688;SDS011;31400;48.132;20.872;2023-12-28T14:02:08;20.77;;;8.02;;
45688;SDS011;31400;48.132;20.872;2023-12-28T14:04:34;15.93;;;8.65;;
45688;SDS011;31400;48.132;20.872;2023-12-28T14:07:00;14.00;;;8.02;;
45688;SDS011;31400;48.132;20.872;2023-12-28T14:09:26;19.10;;;8.93;;
45688;SDS011;31400;48.132;20.872;2023-12-28T14:11:52;17.00;;;9.13;;
45688;SDS011;31400;48.132;20.872;2023-12-28T14:14:18;15.93;;;8.57;;
45688;SDS011;31400;48.132;20.872;2023-12-28T14:16:45;12.48;;;8.18;;
45688;SDS011;31400;48.132;20.872;2023-12-28T14:21:38;13.77;;;8.40;;
45688;SDS011;31400;48.132;20.872;2023-12-28T14:26:31;23.35;;;9.43;;
45688;SDS011;31400;48.132;20.872;2023-12-28T14:28:58;18.13;;;8.50;;
45688;SDS011;31400;48.132;20.872;2023-12-28T14:31:24;21.20;;;8.35;;
45688;SDS011;31400;48.132;20.872;2023-12-28T14:33:53;16.80;;;8.27;;
45688;SDS011;31400;48.132;20.872;2023-12-28T14:36:52;15.25;;;8.07;;
45688;SDS011;31400;48.132;20.872;2023-12-28T14:39:15;12.70;;;7.63;;
45688;SDS011;31400;48.132;20.872;2023-12-28T14:41:43;14.25;;;8.38;;
45688;SDS011;31400;48.132;20.872;2023-12-28T14:44:09;20.67;;;9.27;;
45688;SDS011;31400;48.132;20.872;2023-12-28T14:46:36;11.07;;;8.00;;
45688;SDS011;31400;48.132;20.872;2023-12-28T14:49:02;18.27;;;8.52;;
45688;SDS011;31400;48.132;20.872;2023-12-28T14:51:28;17.08;;;8.80;;
45688;SDS011;31400;48.132;20.872;2023-12-28T14:53:54;15.10;;;9.20;;
45688;SDS011;31400;48.132;20.872;2023-12-28T14:56:20;16.23;;;9.05;;
45688;SDS011;31400;48.132;20.872;2023-12-28T14:58:46;17.08;;;10.07;;
45688;SDS011;31400;48.132;20.872;2023-12-28T15:01:15;14.63;;;10.40;;
45688;SDS011;31400;48.132;20.872;2023-12-28T15:06:07;27.05;;;9.35;;
45688;SDS011;31400;48.132;20.872;2023-12-28T15:08:33;15.75;;;9.45;;
45688;SDS011;31400;48.132;20.872;2023-12-28T15:11:00;15.02;;;9.38;;
45688;SDS011;31400;48.132;20.872;2023-12-28T15:13:26;16.58;;;8.73;;
45688;SDS011;31400;48.132;20.872;2023-12-28T15:18:21;17.70;;;9.95;;
45688;SDS011;31400;48.132;20.872;2023-12-28T15:20:47;17.63;;;11.43;;
45688;SDS011;31400;48.132;20.872;2023-12-28T15:25:43;16.53;;;9.73;;
45688;SDS011;31400;48.132;20.872;2023-12-28T15:28:09;16.95;;;10.02;;
45688;SDS011;31400;48.132;20.872;2023-12-28T15:30:35;13.85;;;9.48;;
45688;SDS011;31400;48.132;20.872;2023-12-28T15:33:01;15.73;;;9.80;;
45688;SDS011;31400;48.132;20.872;2023-12-28T15:35:28;19.80;;;10.95;;
45688;SDS011;31400;48.132;20.872;2023-12-28T15:37:54;15.00;;;10.07;;
45688;SDS011;31400;48.132;20.872;2023-12-28T15:40:20;16.75;;;9.98;;
45688;SDS011;31400;48.132;20.872;2023-12-28T15:42:47;18.40;;;9.40;;
45688;SDS011;31400;48.132;20.872;2023-12-28T15:45:13;15.45;;;10.45;;
45688;SDS011;31400;48.132;20.872;2023-12-28T15:47:39;23.13;;;13.68;;
45688;SDS011;31400;48.132;20.872;2023-12-28T15:50:05;24.33;;;14.13;;
45688;SDS011;31400;48.132;20.872;2023-12-28T15:52:31;30.60;;;16.00;;
45688;SDS011;31400;48.132;20.872;2023-12-28T15:54:57;30.77;;;17.50;;
45688;SDS011;31400;48.132;20.872;2023-12-28T15:57:23;30.17;;;17.52;;
45688;SDS011;31400;48.132;20.872;2023-12-28T15:59:49;34.30;;;18.58;;
45688;SDS011;31400;48.132;20.872;2023-12-28T16:02:22;30.35;;;17.67;;
45688;SDS011;31400;48.132;20.872;2023-12-28T16:04:48;35.00;;;21.05;;
45688;SDS011;31400;48.132;20.872;2023-12-28T16:07:14;42.58;;;23.48;;
45688;SDS011;31400;48.132;20.872;2023-12-28T16:09:40;51.70;;;26.55;;
45688;SDS011;31400;48.132;20.872;2023-12-28T16:12:06;48.78;;;23.48;;
45688;SDS011;31400;48.132;20.872;2023-12-28T16:14:34;42.08;;;21.83;;
45688;SDS011;31400;48.132;20.872;2023-12-28T16:17:00;37.38;;;22.70;;
45688;SDS011;31400;48.132;20.872;2023-12-28T16:21:52;35.75;;;19.13;;
45688;SDS011;31400;48.132;20.872;2023-12-28T16:24:18;29.02;;;19.33;;
45688;SDS011;31400;48.132;20.872;2023-12-28T16:26:44;26.33;;;17.73;;
45688;SDS011;31400;48.132;20.872;2023-12-28T16:29:10;28.85;;;18.63;;
45688;SDS011;31400;48.132;20.872;2023-12-28T16:31:36;40.50;;;20.13;;
45688;SDS011;31400;48.132;20.872;2023-12-28T16:34:02;33.60;;;19.83;;
45688;SDS011;31400;48.132;20.872;2023-12-28T16:36:28;36.22;;;22.92;;
45688;SDS011;31400;48.132;20.872;2023-12-28T16:38:54;42.78;;;22.40;;
45688;SDS011;31400;48.132;20.872;2023-12-28T16:41:20;39.72;;;22.58;;
45688;SDS011;31400;48.132;20.872;2023-12-28T16:43:46;42.63;;;23.77;;
45688;SDS011;31400;48.132;20.872;2023-12-28T16:46:14;41.30;;;22.92;;
45688;SDS011;31400;48.132;20.872;2023-12-28T16:48:41;34.80;;;21.17;;
45688;SDS011;31400;48.132;20.872;2023-12-28T16:51:08;45.80;;;24.00;;
45688;SDS011;31400;48.132;20.872;2023-12-28T16:53:34;44.63;;;23.98;;
45688;SDS011;31400;48.132;20.872;2023-12-28T16:56:00;39.90;;;24.63;;
45688;SDS011;31400;48.132;20.872;2023-12-28T16:58:26;44.03;;;25.55;;
45688;SDS011;31400;48.132;20.872;2023-12-28T17:00:53;43.42;;;24.67;;
45688;SDS011;31400;48.132;20.872;2023-12-28T17:03:19;36.15;;;23.05;;
45688;SDS011;31400;48.132;20.872;2023-12-28T17:05:46;45.55;;;25.70;;
45688;SDS011;31400;48.132;20.872;2023-12-28T17:08:12;35.33;;;21.95;;
45688;SDS011;31400;48.132;20.872;2023-12-28T17:10:38;39.08;;;23.83;;
45688;SDS011;31400;48.132;20.872;2023-12-28T17:13:07;54.90;;;25.92;;
45688;SDS011;31400;48.132;20.872;2023-12-28T17:18:02;40.65;;;25.05;;
45688;SDS011;31400;48.132;20.872;2023-12-28T17:22:56;41.20;;;23.75;;
45688;SDS011;31400;48.132;20.872;2023-12-28T17:27:55;44.22;;;26.90;;
45688;SDS011;31400;48.132;20.872;2023-12-28T17:30:25;43.55;;;24.17;;
45688;SDS011;31400;48.132;20.872;2023-12-28T17:32:53;44.20;;;26.58;;
45688;SDS011;31400;48.132;20.872;2023-12-28T17:35:20;42.55;;;26.17;;
45688;SDS011;31400;48.132;20.872;2023-12-28T17:40:13;43.83;;;23.58;;
45688;SDS011;31400;48.132;20.872;2023-12-28T17:42:39;40.50;;;24.00;;
45688;SDS011;31400;48.132;20.872;2023-12-28T17:45:07;48.72;;;26.30;;
45688;SDS011;31400;48.132;20.872;2023-12-28T17:47:36;53.90;;;31.98;;
45688;SDS011;31400;48.132;20.872;2023-12-28T17:50:05;57.38;;;32.40;;
45688;SDS011;31400;48.132;20.872;2023-12-28T17:54:58;50.92;;;28.88;;
45688;SDS011;31400;48.132;20.872;2023-12-28T17:57:24;58.45;;;31.77;;
45688;SDS011;31400;48.132;20.872;2023-12-28T17:59:50;43.38;;;28.25;;
45688;SDS011;31400;48.132;20.872;2023-12-28T18:02:16;47.28;;;26.88;;
45688;SDS011;31400;48.132;20.872;2023-12-28T18:04:43;42.03;;;26.05;;
45688;SDS011;31400;48.132;20.872;2023-12-28T18:07:09;43.22;;;25.40;;
45688;SDS011;31400;48.132;20.872;2023-12-28T18:09:35;37.88;;;22.23;;
45688;SDS011;31400;48.132;20.872;2023-12-28T18:12:06;34.53;;;22.13;;
45688;SDS011;31400;48.132;20.872;2023-12-28T18:14:33;39.92;;;23.85;;
45688;SDS011;31400;48.132;20.872;2023-12-28T18:16:59;38.78;;;23.70;;
45688;SDS011;31400;48.132;20.872;2023-12-28T18:19:25;39.20;;;22.80;;
45688;SDS011;31400;48.132;20.872;2023-12-28T18:21:51;34.88;;;22.98;;
45688;SDS011;31400;48.132;20.872;2023-12-28T18:24:17;41.70;;;23.92;;
45688;SDS011;31400;48.132;20.872;2023-12-28T18:26:44;41.45;;;23.52;;
45688;SDS011;31400;48.132;20.872;2023-12-28T18:29:11;46.65;;;21.88;;
45688;SDS011;31400;48.132;20.872;2023-12-28T18:31:37;42.55;;;26.10;;
45688;SDS011;31400;48.132;20.872;2023-12-28T18:34:03;50.83;;;29.40;;
45688;SDS011;31400;48.132;20.872;2023-12-28T18:36:29;60.50;;;34.85;;
45688;SDS011;31400;48.132;20.872;2023-12-28T18:38:55;118.75;;;55.97;;
45688;SDS011;31400;48.132;20.872;2023-12-28T18:41:21;119.40;;;57.80;;
45688;SDS011;31400;48.132;20.872;2023-12-28T18:43:48;94.57;;;52.90;;
45688;SDS011;31400;48.132;20.872;2023-12-28T18:46:23;91.07;;;51.90;;
45688;SDS011;31400;48.132;20.872;2023-12-28T18:48:49;100.22;;;54.65;;
45688;SDS011;31400;48.132;20.872;2023-12-28T18:51:15;97.82;;;54.80;;
45688;SDS011;31400;48.132;20.872;2023-12-28T18:53:41;99.28;;;57.30;;
45688;SDS011;31400;48.132;20.872;2023-12-28T18:56:09;101.22;;;55.17;;
45688;SDS011;31400;48.132;20.872;2023-12-28T18:58:34;101.32;;;57.20;;
45688;SDS011;31400;48.132;20.872;2023-12-28T19:01:00;72.55;;;44.80;;
45688;SDS011;31400;48.132;20.872;2023-12-28T19:03:26;89.90;;;56.92;;
45688;SDS011;31400;48.132;20.872;2023-12-28T19:05:54;187.23;;;93.75;;
45688;SDS011;31400;48.132;20.872;2023-12-28T19:08:20;134.68;;;79.00;;
45688;SDS011;31400;48.132;20.872;2023-12-28T19:10:46;147.88;;;81.18;;
45688;SDS011;31400;48.132;20.872;2023-12-28T19:13:12;160.27;;;92.13;;
45688;SDS011;31400;48.132;20.872;2023-12-28T19:15:38;211.65;;;107.85;;
45688;SDS011;31400;48.132;20.872;2023-12-28T19:18:04;128.52;;;69.57;;
45688;SDS011;31400;48.132;20.872;2023-12-28T19:20:30;119.00;;;65.85;;
45688;SDS011;31400;48.132;20.872;2023-12-28T19:22:56;87.68;;;45.08;;
45688;SDS011;31400;48.132;20.872;2023-12-28T19:25:22;110.70;;;57.33;;
45688;SDS011;31400;48.132;20.872;2023-12-28T19:27:48;103.55;;;60.22;;
45688;SDS011;31400;48.132;20.872;2023-12-28T19:30:14;110.55;;;61.08;;
45688;SDS011;31400;48.132;20.872;2023-12-28T19:32:40;122.30;;;64.57;;
45688;SDS011;31400;48.132;20.872;2023-12-28T19:35:06;113.13;;;70.00;;
45688;SDS011;31400;48.132;20.872;2023-12-28T19:37:36;143.57;;;77.15;;
45688;SDS011;31400;48.132;20.872;2023-12-28T19:40:02;132.43;;;73.40;;
45688;SDS011;31400;48.132;20.872;2023-12-28T19:42:30;129.60;;;66.57;;
45688;SDS011;31400;48.132;20.872;2023-12-28T19:44:56;111.13;;;60.55;;
45688;SDS011;31400;48.132;20.872;2023-12-28T19:47:22;107.15;;;59.97;;
45688;SDS011;31400;48.132;20.872;2023-12-28T19:52:15;92.20;;;55.47;;
45688;SDS011;31400;48.132;20.872;2023-12-28T19:54:44;95.28;;;58.30;;
45688;SDS011;31400;48.132;20.872;2023-12-28T19:57:11;93.35;;;58.28;;
45688;SDS011;31400;48.132;20.872;2023-12-28T19:59:37;98.47;;;56.95;;
45688;SDS011;31400;48.132;20.872;2023-12-28T20:02:03;103.53;;;54.92;;
45688;SDS011;31400;48.132;20.872;2023-12-28T20:04:29;90.32;;;53.53;;
45688;SDS011;31400;48.132;20.872;2023-12-28T20:06:55;90.78;;;51.38;;
45688;SDS011;31400;48.132;20.872;2023-12-28T20:09:21;76.72;;;48.97;;
45688;SDS011;31400;48.132;20.872;2023-12-28T20:11:50;82.38;;;45.97;;
45688;SDS011;31400;48.132;20.872;2023-12-28T20:14:16;74.57;;;43.78;;
45688;SDS011;31400;48.132;20.872;2023-12-28T20:16:42;73.45;;;42.15;;
45688;SDS011;31400;48.132;20.872;2023-12-28T20:19:10;71.88;;;40.30;;
45688;SDS011;31400;48.132;20.872;2023-12-28T20:21:36;76.82;;;42.60;;
45688;SDS011;31400;48.132;20.872;2023-12-28T20:24:04;67.18;;;38.65;;
45688;SDS011;31400;48.132;20.872;2023-12-28T20:26:30;57.22;;;37.35;;
45688;SDS011;31400;48.132;20.872;2023-12-28T20:28:56;63.78;;;39.78;;
45688;SDS011;31400;48.132;20.872;2023-12-28T20:31:22;61.55;;;34.80;;
45688;SDS011;31400;48.132;20.872;2023-12-28T20:33:48;64.80;;;39.72;;
45688;SDS011;31400;48.132;20.872;2023-12-28T20:36:15;67.60;;;38.17;;
45688;SDS011;31400;48.132;20.872;2023-12-28T20:38:41;57.70;;;35.17;;
45688;SDS011;31400;48.132;20.872;2023-12-28T20:41:07;74.55;;;43.85;;
45688;SDS011;31400;48.132;20.872;2023-12-28T20:43:41;75.90;;;40.80;;
45688;SDS011;31400;48.132;20.872;2023-12-28T20:46:07;74.93;;;42.17;;
45688;SDS011;31400;48.132;20.872;2023-12-28T20:48:33;73.72;;;42.92;;
45688;SDS011;31400;48.132;20.872;2023-12-28T20:50:59;75.82;;;44.08;;
45688;SDS011;31400;48.132;20.872;2023-12-28T20:53:26;88.60;;;44.75;;
45688;SDS011;31400;48.132;20.872;2023-12-28T20:58:18;66.03;;;40.65;;
45688;SDS011;31400;48.132;20.872;2023-12-28T21:00:44;82.53;;;43.42;;
45688;SDS011;31400;48.132;20.872;2023-12-28T21:03:10;70.97;;;45.03;;
45688;SDS011;31400;48.132;20.872;2023-12-28T21:05:36;76.50;;;44.17;;
45688;SDS011;31400;48.132;20.872;2023-12-28T21:08:02;87.35;;;51.00;;
45688;SDS011;31400;48.132;20.872;2023-12-28T21:10:28;105.78;;;60.30;;
45688;SDS011;31400;48.132;20.872;2023-12-28T21:12:57;105.38;;;63.38;;
45688;SDS011;31400;48.132;20.872;2023-12-28T21:15:28;133.15;;;76.50;;
45688;SDS011;31400;48.132;20.872;2023-12-28T21:20:22;158.30;;;76.97;;
45688;SDS011;31400;48.132;20.872;2023-12-28T21:22:48;206.63;;;99.38;;
45688;SDS011;31400;48.132;20.872;2023-12-28T21:25:14;180.13;;;101.07;;
45688;SDS011;31400;48.132;20.872;2023-12-28T21:27:40;205.85;;;99.78;;
45688;SDS011;31400;48.132;20.872;2023-12-28T21:30:06;178.90;;;97.20;;
45688;SDS011;31400;48.132;20.872;2023-12-28T21:32:37;167.95;;;88.82;;
45688;SDS011;31400;48.132;20.872;2023-12-28T21:35:03;139.20;;;78.35;;
45688;SDS011;31400;48.132;20.872;2023-12-28T21:37:29;138.85;;;73.28;;
45688;SDS011;31400;48.132;20.872;2023-12-28T21:39:55;142.00;;;77.28;;
45688;SDS011;31400;48.132;20.872;2023-12-28T21:42:34;124.78;;;74.90;;
45688;SDS011;31400;48.132;20.872;2023-12-28T21:45:00;121.07;;;68.95;;
45688;SDS011;31400;48.132;20.872;2023-12-28T21:47:34;137.50;;;71.15;;
45688;SDS011;31400;48.132;20.872;2023-12-28T21:50:03;118.70;;;67.65;;
45688;SDS011;31400;48.132;20.872;2023-12-28T21:52:41;117.38;;;68.47;;
45688;SDS011;31400;48.132;20.872;2023-12-28T21:55:09;126.85;;;71.72;;
45688;SDS011;31400;48.132;20.872;2023-12-28T21:57:38;114.50;;;69.03;;
45688;SDS011;31400;48.132;20.872;2023-12-28T22:00:06;120.05;;;67.28;;
45688;SDS011;31400;48.132;20.872;2023-12-28T22:02:32;116.85;;;67.70;;
45688;SDS011;31400;48.132;20.872;2023-12-28T22:04:58;118.32;;;64.45;;
45688;SDS011;31400;48.132;20.872;2023-12-28T22:07:24;116.13;;;67.22;;
45688;SDS011;31400;48.132;20.872;2023-12-28T22:10:10;114.35;;;64.05;;
45688;SDS011;31400;48.132;20.872;2023-12-28T22:12:39;112.65;;;64.38;;
45688;SDS011;31400;48.132;20.872;2023-12-28T22:18:07;118.43;;;68.82;;
45688;SDS011;31400;48.132;20.872;2023-12-28T22:20:57;108.10;;;61.33;;
45688;SDS011;31400;48.132;20.872;2023-12-28T22:23:42;102.78;;;57.72;;
45688;SDS011;31400;48.132;20.872;2023-12-28T22:26:09;103.78;;;59.85;;
45688;SDS011;31400;48.132;20.872;2023-12-28T22:28:38;88.85;;;54.08;;
45688;SDS011;31400;48.132;20.872;2023-12-28T22:31:10;87.45;;;51.97;;
45688;SDS011;31400;48.132;20.872;2023-12-28T22:33:40;85.15;;;51.72;;
45688;SDS011;31400;48.132;20.872;2023-12-28T22:36:28;84.45;;;51.03;;
45688;SDS011;31400;48.132;20.872;2023-12-28T22:39:03;86.20;;;54.22;;
45688;SDS011;31400;48.132;20.872;2023-12-28T22:41:52;94.55;;;52.72;;
45688;SDS011;31400;48.132;20.872;2023-12-28T22:44:33;87.00;;;49.45;;
45688;SDS011;31400;48.132;20.872;2023-12-28T22:47:11;85.32;;;51.63;;
45688;SDS011;31400;48.132;20.872;2023-12-28T22:49:41;86.80;;;52.22;;
45688;SDS011;31400;48.132;20.872;2023-12-28T22:52:10;109.15;;;57.00;;
45688;SDS011;31400;48.132;20.872;2023-12-28T22:54:47;122.53;;;63.25;;
45688;SDS011;31400;48.132;20.872;2023-12-28T22:59:41;96.47;;;52.83;;
45688;SDS011;31400;48.132;20.872;2023-12-28T23:02:07;81.53;;;49.67;;
45688;SDS011;31400;48.132;20.872;2023-12-28T23:04:33;88.03;;;47.38;;
45688;SDS011;31400;48.132;20.872;2023-12-28T23:06:59;84.32;;;50.00;;
45688;SDS011;31400;48.132;20.872;2023-12-28T23:09:25;89.45;;;50.47;;
45688;SDS011;31400;48.132;20.872;2023-12-28T23:11:51;94.68;;;48.90;;
45688;SDS011;31400;48.132;20.872;2023-12-28T23:14:19;106.72;;;57.22;;
45688;SDS011;31400;48.132;20.872;2023-12-28T23:16:45;98.60;;;54.97;;
45688;SDS011;31400;48.132;20.872;2023-12-28T23:19:11;105.32;;;57.60;;
45688;SDS011;31400;48.132;20.872;2023-12-28T23:21:38;101.32;;;57.83;;
45688;SDS011;31400;48.132;20.872;2023-12-28T23:24:04;94.85;;;59.22;;
45688;SDS011;31400;48.132;20.872;2023-12-28T23:26:30;119.35;;;64.43;;
45688;SDS011;31400;48.132;20.872;2023-12-28T23:28:56;97.45;;;57.53;;
45688;SDS011;31400;48.132;20.872;2023-12-28T23:31:22;85.72;;;39.70;;
45688;SDS011;31400;48.132;20.872;2023-12-28T23:33:49;90.78;;;53.45;;
45688;SDS011;31400;48.132;20.872;2023-12-28T23:36:18;97.50;;;57.72;;
45688;SDS011;31400;48.132;20.872;2023-12-28T23:38:45;100.25;;;58.67;;
45688;SDS011;31400;48.132;20.872;2023-12-28T23:41:11;95.75;;;58.28;;
45688;SDS011;31400;48.132;20.872;2023-12-28T23:43:40;128.80;;;62.58;;
45688;SDS011;31400;48.132;20.872;2023-12-28T23:46:06;119.25;;;63.05;;
45688;SDS011;31400;48.132;20.872;2023-12-28T23:48:32;90.93;;;46.97;;
45688;SDS011;31400;48.132;20.872;2023-12-28T23:50:58;95.50;;;57.60;;
45688;SDS011;31400;48.132;20.872;2023-12-28T23:53:24;121.20;;;62.70;;
45688;SDS011;31400;48.132;20.872;2023-12-28T23:55:50;120.75;;;62.58;;
45688;SDS011;31400;48.132;20.872;2023-12-28T23:58:16;111.82;;;58.45;;
